Time;durP1;ratioP1;P1;durP2;ratioP2;P2;SDS_P1;SDS_P2;PMS_P1;PMS_P2;Temp;Humidity;BMP_temperature;BMP_pressure;BME280_temperature;BME280_humidity;BME280_pressure;Samples;Min_cycle;Max_cycle;Signal;HPM_P1;HPM_P2
2021/07/01 00:02:19;;;;;;;13.73;4.47;;;;;;;;;;5073285;28;40269;-80
2021/07/01 00:04:45;;;;;;;13.02;4.40;;;;;;;;;;5074098;28;37784;-78
2021/07/01 00:07:12;;;;;;;12.20;5.13;;;;;;;;;;5080642;28;37266;-78
2021/07/01 00:09:38;;;;;;;12.40;4.25;;;;;;;;;;5085001;28;38834;-79
2021/07/01 00:12:04;;;;;;;10.50;4.53;;;;;;;;;;5075485;28;39593;-78
2021/07/01 00:14:31;;;;;;;9.10;4.07;;;;;;;;;;5078221;28;41388;-79
2021/07/01 00:16:57;;;;;;;16.10;4.60;;;;;;;;;;5075699;28;37728;-78
2021/07/01 00:19:25;;;;;;;13.13;4.60;;;;;;;;;;5076899;28;35671;-78
2021/07/01 00:21:52;;;;;;;8.52;3.53;;;;;;;;;;5080509;28;38837;-79
2021/07/01 00:24:18;;;;;;;15.30;4.40;;;;;;;;;;5080236;28;40060;-79
2021/07/01 00:26:45;;;;;;;13.18;3.88;;;;;;;;;;5072763;28;39139;-78
2021/07/01 00:29:11;;;;;;;11.77;3.85;;;;;;;;;;5075836;28;35683;-79
2021/07/01 00:31:37;;;;;;;10.25;3.85;;;;;;;;;;5077993;28;37684;-78
2021/07/01 00:34:04;;;;;;;11.32;4.50;;;;;;;;;;5073141;28;39687;-79
2021/07/01 00:36:30;;;;;;;9.60;4.32;;;;;;;;;;5068249;28;37058;-79
2021/07/01 00:38:57;;;;;;;11.32;4.93;;;;;;;;;;5074281;28;37087;-79
2021/07/01 00:41:23;;;;;;;14.35;6.32;;;;;;;;;;5065970;28;38772;-79
2021/07/01 00:43:50;;;;;;;17.48;5.55;;;;;;;;;;5061040;28;37647;-79
2021/07/01 00:46:17;;;;;;;16.52;5.45;;;;;;;;;;5060733;28;37014;-79
2021/07/01 00:48:43;;;;;;;12.73;6.35;;;;;;;;;;5062372;28;37042;-79
2021/07/01 00:51:10;;;;;;;10.43;4.40;;;;;;;;;;5074931;28;38610;-79
2021/07/01 00:53:37;;;;;;;14.40;5.00;;;;;;;;;;5060010;28;38919;-80
2021/07/01 00:56:05;;;;;;;12.02;4.60;;;;;;;;;;5061768;28;38192;-78
2021/07/01 00:58:32;;;;;;;16.20;5.32;;;;;;;;;;5056934;28;38685;-79
2021/07/01 01:01:02;;;;;;;17.88;5.22;;;;;;;;;;5058329;28;39688;-79
2021/07/01 01:03:35;;;;;;;18.40;5.28;;;;;;;;;;5064389;28;48032;-81
2021/07/01 01:06:03;;;;;;;15.25;4.93;;;;;;;;;;5069590;28;36812;-79
2021/07/01 01:08:30;;;;;;;13.48;5.00;;;;;;;;;;5067579;28;35757;-79
2021/07/01 01:10:56;;;;;;;10.75;4.47;;;;;;;;;;5084188;28;39983;-80
2021/07/01 01:13:26;;;;;;;13.43;4.85;;;;;;;;;;5090137;28;38689;-80
2021/07/01 01:15:57;;;;;;;13.35;4.93;;;;;;;;;;5083879;28;38270;-81
2021/07/01 01:18:23;;;;;;;15.15;4.88;;;;;;;;;;5098285;27;37109;-80
2021/07/01 01:20:50;;;;;;;12.82;5.53;;;;;;;;;;5075410;28;38234;-81
2021/07/01 01:23:17;;;;;;;13.65;5.35;;;;;;;;;;5067152;28;37046;-80
2021/07/01 01:25:45;;;;;;;13.20;5.20;;;;;;;;;;5086450;28;39434;-79
2021/07/01 01:28:11;;;;;;;13.82;5.15;;;;;;;;;;5082442;28;36992;-79
2021/07/01 01:30:38;;;;;;;12.32;4.40;;;;;;;;;;5056604;28;38041;-80
2021/07/01 01:33:06;;;;;;;15.18;5.25;;;;;;;;;;5089997;28;39899;-80
2021/07/01 01:35:32;;;;;;;15.93;4.55;;;;;;;;;;5069818;28;38358;-79
2021/07/01 01:37:58;;;;;;;14.15;4.57;;;;;;;;;;5077315;28;37964;-79
2021/07/01 01:40:25;;;;;;;12.20;4.55;;;;;;;;;;5047831;28;38410;-79
2021/07/01 01:42:51;;;;;;;16.35;5.50;;;;;;;;;;5080391;28;37797;-79
2021/07/01 01:45:18;;;;;;;15.18;4.88;;;;;;;;;;5056511;28;40694;-79
2021/07/01 01:47:48;;;;;;;9.60;4.68;;;;;;;;;;5053523;28;35710;-79
2021/07/01 01:50:21;;;;;;;15.48;5.50;;;;;;;;;;5062440;28;37856;-79
2021/07/01 01:52:48;;;;;;;15.93;5.72;;;;;;;;;;5058942;28;37056;-79
2021/07/01 01:55:15;;;;;;;10.98;4.72;;;;;;;;;;5078365;28;38115;-79
2021/07/01 01:57:43;;;;;;;12.48;4.38;;;;;;;;;;5057614;28;37709;-79
2021/07/01 02:00:10;;;;;;;12.48;6.18;;;;;;;;;;5071532;28;39237;-79
2021/07/01 02:02:36;;;;;;;14.45;5.85;;;;;;;;;;5076518;28;39739;-79
2021/07/01 02:05:03;;;;;;;14.05;4.82;;;;;;;;;;5077225;28;37330;-79
2021/07/01 02:07:29;;;;;;;15.73;5.10;;;;;;;;;;5054471;28;47184;-79
2021/07/01 02:09:57;;;;;;;14.65;5.30;;;;;;;;;;5055950;28;38692;-80
2021/07/01 02:12:24;;;;;;;14.90;5.35;;;;;;;;;;5078658;28;38394;-80
2021/07/01 02:14:51;;;;;;;15.45;5.47;;;;;;;;;;5058687;28;36081;-79
2021/07/01 02:17:17;;;;;;;19.55;5.63;;;;;;;;;;5055731;28;35431;-79
2021/07/01 02:19:44;;;;;;;14.57;5.38;;;;;;;;;;5061056;28;37260;-80
2021/07/01 02:22:10;;;;;;;12.93;4.25;;;;;;;;;;5078411;28;38564;-79
2021/07/01 02:24:36;;;;;;;12.07;5.07;;;;;;;;;;5058082;28;38668;-79
2021/07/01 02:27:06;;;;;;;17.50;5.50;;;;;;;;;;5056032;28;35390;-79
2021/07/01 02:29:32;;;;;;;13.35;4.95;;;;;;;;;;5057368;28;39775;-79
2021/07/01 02:31:58;;;;;;;9.32;4.68;;;;;;;;;;5063248;28;36744;-80
2021/07/01 02:34:25;;;;;;;11.50;4.65;;;;;;;;;;5081884;28;36808;-80
2021/07/01 02:36:51;;;;;;;16.92;4.88;;;;;;;;;;5053382;28;37815;-79
2021/07/01 02:39:17;;;;;;;10.70;4.30;;;;;;;;;;5056475;28;39653;-79
2021/07/01 02:41:44;;;;;;;10.45;4.13;;;;;;;;;;5066493;28;39295;-79
2021/07/01 02:44:10;;;;;;;11.13;4.55;;;;;;;;;;5059850;28;38347;-79
2021/07/01 02:46:37;;;;;;;13.23;4.60;;;;;;;;;;5063813;28;36084;-79
2021/07/01 02:49:03;;;;;;;13.90;4.65;;;;;;;;;;5079813;28;39905;-78
2021/07/01 02:51:29;;;;;;;8.82;4.63;;;;;;;;;;5075869;28;38567;-79
2021/07/01 02:53:56;;;;;;;12.20;4.18;;;;;;;;;;5078570;28;38448;-78
2021/07/01 02:56:22;;;;;;;15.25;4.88;;;;;;;;;;5058554;28;38420;-79
2021/07/01 02:58:49;;;;;;;13.90;4.55;;;;;;;;;;5059289;28;39357;-79
2021/07/01 03:01:15;;;;;;;15.40;5.43;;;;;;;;;;5077339;28;39388;-79
2021/07/01 03:03:42;;;;;;;14.07;4.95;;;;;;;;;;5083282;28;37796;-80
2021/07/01 03:06:08;;;;;;;14.15;5.38;;;;;;;;;;5067614;28;35810;-78
2021/07/01 03:08:35;;;;;;;14.20;5.72;;;;;;;;;;5062389;28;38391;-79
2021/07/01 03:11:01;;;;;;;10.50;5.68;;;;;;;;;;5060766;28;39035;-79
2021/07/01 03:13:27;;;;;;;15.07;5.10;;;;;;;;;;5066775;28;47003;-79
2021/07/01 03:15:54;;;;;;;16.98;5.55;;;;;;;;;;5065437;28;37158;-79
2021/07/01 03:18:20;;;;;;;16.30;6.05;;;;;;;;;;5083140;28;40226;-79
2021/07/01 03:20:46;;;;;;;12.45;5.30;;;;;;;;;;5087540;28;38475;-79
2021/07/01 03:23:13;;;;;;;15.15;5.90;;;;;;;;;;5087464;28;39089;-78
2021/07/01 03:25:39;;;;;;;14.82;5.43;;;;;;;;;;5082749;28;37255;-78
2021/07/01 03:28:06;;;;;;;13.68;5.60;;;;;;;;;;5078864;28;38635;-78
2021/07/01 03:30:32;;;;;;;14.10;6.50;;;;;;;;;;5060427;28;38806;-79
2021/07/01 03:32:58;;;;;;;17.52;7.95;;;;;;;;;;5087483;28;38111;-79
2021/07/01 03:35:25;;;;;;;17.90;6.55;;;;;;;;;;5080258;28;36584;-78
2021/07/01 03:37:51;;;;;;;19.08;7.18;;;;;;;;;;5062155;28;39426;-79
2021/07/01 03:40:18;;;;;;;17.08;7.38;;;;;;;;;;5058685;28;36625;-78
2021/07/01 03:42:44;;;;;;;9.90;4.93;;;;;;;;;;5060798;28;39120;-79
2021/07/01 03:45:11;;;;;;;16.00;5.10;;;;;;;;;;5058595;28;37476;-79
2021/07/01 03:47:37;;;;;;;14.00;5.20;;;;;;;;;;5081296;28;38680;-78
2021/07/01 03:50:04;;;;;;;12.68;5.43;;;;;;;;;;5078843;28;38415;-78
2021/07/01 03:52:30;;;;;;;12.82;5.22;;;;;;;;;;5060524;28;47237;-78
2021/07/01 03:54:57;;;;;;;15.52;5.57;;;;;;;;;;5080651;28;37814;-79
2021/07/01 03:57:23;;;;;;;12.68;5.00;;;;;;;;;;5076979;28;41938;-79
2021/07/01 03:59:49;;;;;;;12.82;4.78;;;;;;;;;;5081086;28;39277;-78
2021/07/01 04:02:16;;;;;;;12.82;5.20;;;;;;;;;;5071729;28;39408;-78
2021/07/01 04:04:42;;;;;;;14.60;5.20;;;;;;;;;;5059268;28;37377;-78
2021/07/01 04:07:09;;;;;;;14.02;4.97;;;;;;;;;;5060365;28;40074;-78
2021/07/01 04:09:35;;;;;;;8.60;4.63;;;;;;;;;;5059575;28;41357;-79
2021/07/01 04:12:02;;;;;;;10.13;4.53;;;;;;;;;;5060196;28;39021;-79
2021/07/01 04:14:29;;;;;;;15.50;6.30;;;;;;;;;;5085036;28;47130;-78
2021/07/01 04:16:55;;;;;;;12.38;4.68;;;;;;;;;;5064936;28;39649;-78
2021/07/01 04:19:22;;;;;;;16.83;5.47;;;;;;;;;;5076472;28;38472;-78
2021/07/01 04:21:48;;;;;;;14.43;5.40;;;;;;;;;;5074519;28;38102;-79
2021/07/01 04:24:14;;;;;;;11.07;4.40;;;;;;;;;;5062893;28;35618;-79
2021/07/01 04:26:41;;;;;;;11.98;4.38;;;;;;;;;;5051487;28;38456;-79
2021/07/01 04:29:07;;;;;;;12.32;4.35;;;;;;;;;;5078736;28;38324;-79
2021/07/01 04:31:33;;;;;;;13.27;4.55;;;;;;;;;;5060015;28;39881;-79
2021/07/01 04:34:01;;;;;;;10.75;4.88;;;;;;;;;;5057102;28;35840;-79
2021/07/01 04:36:27;;;;;;;10.88;4.55;;;;;;;;;;5089490;28;48714;-79
2021/07/01 04:38:54;;;;;;;12.63;4.70;;;;;;;;;;5084799;28;38390;-79
2021/07/01 04:41:20;;;;;;;14.55;4.22;;;;;;;;;;5083460;28;38434;-79
2021/07/01 04:43:47;;;;;;;9.75;4.05;;;;;;;;;;5064941;28;37821;-78
2021/07/01 04:46:14;;;;;;;11.70;4.95;;;;;;;;;;5078819;28;38921;-78
2021/07/01 04:48:41;;;;;;;12.57;5.15;;;;;;;;;;5058942;28;38475;-78
2021/07/01 04:51:07;;;;;;;15.38;5.13;;;;;;;;;;5059294;28;38967;-77
2021/07/01 04:53:34;;;;;;;14.88;4.55;;;;;;;;;;5053049;28;35917;-78
2021/07/01 04:56:00;;;;;;;13.50;4.80;;;;;;;;;;5052687;28;39490;-78
2021/07/01 04:58:27;;;;;;;12.32;4.78;;;;;;;;;;5073092;28;47636;-78
2021/07/01 05:00:53;;;;;;;10.20;4.57;;;;;;;;;;5055394;28;38531;-78
2021/07/01 05:03:20;;;;;;;10.95;5.28;;;;;;;;;;5071343;28;35417;-78
2021/07/01 05:05:46;;;;;;;10.60;4.47;;;;;;;;;;5081079;28;39085;-79
2021/07/01 05:08:12;;;;;;;10.25;4.95;;;;;;;;;;5084614;28;38028;-79
2021/07/01 05:10:39;;;;;;;10.88;4.82;;;;;;;;;;5093017;28;38459;-80
2021/07/01 05:13:05;;;;;;;13.52;5.30;;;;;;;;;;5080001;28;37146;-79
2021/07/01 05:15:32;;;;;;;8.48;4.40;;;;;;;;;;5060830;28;38133;-79
2021/07/01 05:17:58;;;;;;;12.25;5.07;;;;;;;;;;5058439;28;38706;-78
2021/07/01 05:20:24;;;;;;;15.05;5.72;;;;;;;;;;5077072;28;38972;-80
2021/07/01 05:22:51;;;;;;;16.60;5.53;;;;;;;;;;5082589;28;36857;-79
2021/07/01 05:25:17;;;;;;;15.20;5.35;;;;;;;;;;5063028;28;39511;-79
2021/07/01 05:27:43;;;;;;;9.60;4.50;;;;;;;;;;5086583;28;39197;-78
2021/07/01 05:30:10;;;;;;;14.73;5.63;;;;;;;;;;5080206;28;38174;-78
2021/07/01 05:32:36;;;;;;;12.95;5.85;;;;;;;;;;5080766;28;36954;-78
2021/07/01 05:35:03;;;;;;;13.98;5.53;;;;;;;;;;5056130;28;37904;-78
2021/07/01 05:37:29;;;;;;;11.48;4.32;;;;;;;;;;5058858;28;38268;-79
2021/07/01 05:39:56;;;;;;;9.25;4.22;;;;;;;;;;5059215;28;38150;-78
2021/07/01 05:42:22;;;;;;;10.27;4.18;;;;;;;;;;5073601;28;36683;-79
2021/07/01 05:44:49;;;;;;;9.73;4.70;;;;;;;;;;5074461;28;38889;-78
2021/07/01 05:47:15;;;;;;;12.48;4.07;;;;;;;;;;5055005;28;39515;-78
2021/07/01 05:49:41;;;;;;;8.88;4.25;;;;;;;;;;5075126;28;38034;-78
2021/07/01 05:52:08;;;;;;;13.65;4.40;;;;;;;;;;5080564;27;37240;-79
2021/07/01 05:54:37;;;;;;;7.63;4.32;;;;;;;;;;5066065;28;40492;-78
2021/07/01 05:57:04;;;;;;;8.90;4.40;;;;;;;;;;5066530;28;38959;-78
2021/07/01 05:59:31;;;;;;;12.90;4.53;;;;;;;;;;5088311;28;38013;-79
2021/07/01 06:01:57;;;;;;;9.73;4.30;;;;;;;;;;5088924;28;36817;-78
2021/07/01 06:04:23;;;;;;;14.32;4.40;;;;;;;;;;5083888;28;38565;-78
2021/07/01 06:06:51;;;;;;;10.52;4.40;;;;;;;;;;5078687;28;38343;-78
2021/07/01 06:09:21;;;;;;;10.40;4.78;;;;;;;;;;5063103;28;39735;-78
2021/07/01 06:11:53;;;;;;;13.30;4.93;;;;;;;;;;5084888;28;36786;-79
2021/07/01 06:14:19;;;;;;;16.77;5.03;;;;;;;;;;5084651;28;40288;-78
2021/07/01 06:16:46;;;;;;;13.95;4.93;;;;;;;;;;5063173;28;38727;-78
2021/07/01 06:19:15;;;;;;;12.23;5.10;;;;;;;;;;5057666;28;38284;-78
2021/07/01 06:21:42;;;;;;;12.40;4.82;;;;;;;;;;5061633;28;38709;-78
2021/07/01 06:24:09;;;;;;;16.15;4.97;;;;;;;;;;5078595;28;39071;-78
2021/07/01 06:26:36;;;;;;;16.48;5.18;;;;;;;;;;5079877;28;38104;-78
2021/07/01 06:29:03;;;;;;;17.23;5.43;;;;;;;;;;5060837;28;39635;-79
2021/07/01 06:31:30;;;;;;;19.88;5.70;;;;;;;;;;5088043;28;48820;-79
2021/07/01 06:33:56;;;;;;;14.82;6.00;;;;;;;;;;5080660;28;38714;-79
2021/07/01 06:36:27;;;;;;;13.45;5.68;;;;;;;;;;5077850;28;38758;-79
2021/07/01 06:38:55;;;;;;;17.52;5.05;;;;;;;;;;5058456;28;39902;-79
2021/07/01 06:41:22;;;;;;;15.23;5.63;;;;;;;;;;5086662;28;35875;-78
2021/07/01 06:43:49;;;;;;;20.40;5.47;;;;;;;;;;5085212;28;38769;-78
2021/07/01 06:46:16;;;;;;;15.15;5.65;;;;;;;;;;5066496;28;40167;-78
2021/07/01 06:48:45;;;;;;;16.55;5.47;;;;;;;;;;5082973;28;38989;-78
2021/07/01 06:51:12;;;;;;;20.42;6.00;;;;;;;;;;5055686;28;38665;-77
2021/07/01 06:53:41;;;;;;;19.63;5.72;;;;;;;;;;5080123;28;38833;-78
2021/07/01 06:56:07;;;;;;;12.80;5.50;;;;;;;;;;5063401;28;39278;-78
2021/07/01 06:58:33;;;;;;;14.93;6.10;;;;;;;;;;5082203;28;37896;-78
2021/07/01 07:01:00;;;;;;;17.45;6.05;;;;;;;;;;5063004;28;37202;-77
2021/07/01 07:03:26;;;;;;;16.88;6.03;;;;;;;;;;5065045;28;39794;-78
2021/07/01 07:05:54;;;;;;;22.33;6.80;;;;;;;;;;5082167;28;38541;-78
2021/07/01 07:08:20;;;;;;;22.45;8.10;;;;;;;;;;5055225;28;38786;-78
2021/07/01 07:10:47;;;;;;;20.17;6.85;;;;;;;;;;5068428;28;38219;-78
2021/07/01 07:13:14;;;;;;;21.73;8.10;;;;;;;;;;5085132;28;39531;-77
2021/07/01 07:15:42;;;;;;;16.55;6.00;;;;;;;;;;5084438;28;38673;-78
2021/07/01 07:18:27;;;;;;;17.42;6.63;;;;;;;;;;5060345;28;40112;-78
2021/07/01 07:20:55;;;;;;;17.92;6.38;;;;;;;;;;5087112;28;36584;-78
2021/07/01 07:23:28;;;;;;;15.05;6.47;;;;;;;;;;5065452;28;39279;-78
2021/07/01 07:25:55;;;;;;;16.42;5.80;;;;;;;;;;5067837;28;38889;-77
2021/07/01 07:28:23;;;;;;;19.65;6.45;;;;;;;;;;5081296;28;37750;-78
2021/07/01 07:30:52;;;;;;;18.10;6.95;;;;;;;;;;5080678;28;38127;-77
2021/07/01 07:33:18;;;;;;;20.95;7.40;;;;;;;;;;5086165;28;39288;-78
2021/07/01 07:35:46;;;;;;;15.55;6.20;;;;;;;;;;5068773;28;38675;-79
2021/07/01 07:38:13;;;;;;;19.90;7.22;;;;;;;;;;5087651;28;38653;-78
2021/07/01 07:40:40;;;;;;;13.35;6.03;;;;;;;;;;5090858;28;37901;-77
2021/07/01 07:43:08;;;;;;;21.27;6.53;;;;;;;;;;5071550;28;39484;-78
2021/07/01 07:45:35;;;;;;;15.45;6.28;;;;;;;;;;5060281;28;38667;-78
2021/07/01 07:48:01;;;;;;;17.88;6.40;;;;;;;;;;5071871;28;38845;-78
2021/07/01 07:50:27;;;;;;;15.00;5.88;;;;;;;;;;5074720;28;46973;-78
2021/07/01 07:52:55;;;;;;;18.42;6.60;;;;;;;;;;5089097;28;39365;-78
2021/07/01 07:55:23;;;;;;;21.08;6.13;;;;;;;;;;5075996;28;39711;-78
2021/07/01 07:57:52;;;;;;;18.23;6.60;;;;;;;;;;5069667;28;38899;-77
2021/07/01 08:00:19;;;;;;;21.48;6.97;;;;;;;;;;5051284;28;37828;-77
2021/07/01 08:02:48;;;;;;;21.05;6.88;;;;;;;;;;5052156;28;39335;-77
2021/07/01 08:05:22;;;;;;;13.68;5.90;;;;;;;;;;5082288;28;38266;-78
2021/07/01 08:07:49;;;;;;;18.70;7.57;;;;;;;;;;5088735;28;38360;-78
2021/07/01 08:10:17;;;;;;;19.23;6.03;;;;;;;;;;5066185;28;38428;-78
2021/07/01 08:12:46;;;;;;;14.63;6.40;;;;;;;;;;5062866;28;40414;-78
2021/07/01 08:15:14;;;;;;;18.95;7.25;;;;;;;;;;5066596;28;20044;-78
2021/07/01 08:17:44;;;;;;;17.88;5.97;;;;;;;;;;5067352;28;39696;-78
2021/07/01 08:20:11;;;;;;;17.10;6.60;;;;;;;;;;5054592;28;38545;-79
2021/07/01 08:22:39;;;;;;;16.50;6.32;;;;;;;;;;5083802;28;38743;-78
2021/07/01 08:25:05;;;;;;;21.67;7.55;;;;;;;;;;5086072;28;38408;-77
2021/07/01 08:27:33;;;;;;;16.92;6.13;;;;;;;;;;5084649;28;37922;-78
2021/07/01 08:30:00;;;;;;;14.35;5.70;;;;;;;;;;5069806;28;36136;-77
2021/07/01 08:32:27;;;;;;;19.20;6.38;;;;;;;;;;5069500;28;39475;-78
2021/07/01 08:34:53;;;;;;;16.38;6.28;;;;;;;;;;5091455;28;38844;-78
2021/07/01 08:37:21;;;;;;;17.38;5.93;;;;;;;;;;5071615;28;36759;-79
2021/07/01 08:39:48;;;;;;;13.68;5.88;;;;;;;;;;5072979;28;38545;-78
2021/07/01 08:42:15;;;;;;;13.73;5.65;;;;;;;;;;5090526;28;39671;-79
2021/07/01 08:44:43;;;;;;;16.88;5.68;;;;;;;;;;5091008;28;39325;-78
2021/07/01 08:47:15;;;;;;;15.77;5.32;;;;;;;;;;5063238;28;38968;-78
2021/07/01 08:49:41;;;;;;;;;;;;;;;;;;5076031;28;36807;-78
2021/07/01 08:52:08;;;;;;;14.52;5.95;;;;;;;;;;5074878;28;39856;-78
2021/07/01 08:54:36;;;;;;;11.82;5.53;;;;;;;;;;5076512;28;38981;-78
2021/07/01 08:57:04;;;;;;;13.25;5.93;;;;;;;;;;5069517;28;37418;-78
2021/07/01 08:59:40;;;;;;;16.30;5.68;;;;;;;;;;5082962;28;36813;-78
2021/07/01 09:02:09;;;;;;;12.40;5.25;;;;;;;;;;5070252;28;39112;-78
2021/07/01 09:04:56;;;;;;;14.38;5.97;;;;;;;;;;5066668;28;40110;-78
2021/07/01 09:07:24;;;;;;;13.60;5.45;;;;;;;;;;5087822;28;38579;-78
2021/07/01 09:09:57;;;;;;;12.13;6.22;;;;;;;;;;5083635;28;36310;-78
2021/07/01 09:12:24;;;;;;;16.10;6.13;;;;;;;;;;5066864;28;38809;-77
2021/07/01 09:14:58;;;;;;;14.52;6.30;;;;;;;;;;5067064;28;38827;-78
2021/07/01 09:17:26;;;;;;;14.68;5.65;;;;;;;;;;5066794;28;37439;-77
2021/07/01 09:19:54;;;;;;;15.02;5.95;;;;;;;;;;5089266;28;37712;-78
2021/07/01 09:22:21;;;;;;;14.43;4.50;;;;;;;;;;5091185;28;39231;-79
2021/07/01 09:24:49;;;;;;;11.20;4.60;;;;;;;;;;5076829;28;38805;-79
2021/07/01 09:27:16;;;;;;;11.50;5.10;;;;;;;;;;5078316;28;39151;-79
2021/07/01 09:29:43;;;;;;;12.13;4.93;;;;;;;;;;5071139;28;35629;-80
2021/07/01 09:32:11;;;;;;;10.75;4.90;;;;;;;;;;5087406;28;38713;-79
2021/07/01 09:34:38;;;;;;;12.00;5.35;;;;;;;;;;5072017;28;37834;-79
2021/07/01 09:37:05;;;;;;;14.63;5.45;;;;;;;;;;5077863;28;37043;-79
2021/07/01 09:39:32;;;;;;;13.82;5.57;;;;;;;;;;5088520;28;36577;-80
2021/07/01 09:42:02;;;;;;;13.20;5.90;;;;;;;;;;5068332;28;39271;-79
2021/07/01 09:44:29;;;;;;;13.40;5.90;;;;;;;;;;5068810;28;47301;-80
2021/07/01 09:47:00;;;;;;;15.70;6.72;;;;;;;;;;5065372;28;38362;-79
2021/07/01 09:49:31;;;;;;;14.98;5.85;;;;;;;;;;5064802;28;36131;-79
2021/07/01 09:51:58;;;;;;;13.68;5.90;;;;;;;;;;5061266;28;37552;-79
2021/07/01 09:54:25;;;;;;;13.23;6.30;;;;;;;;;;5075451;28;38541;-79
2021/07/01 09:56:53;;;;;;;13.02;5.70;;;;;;;;;;5088408;28;38498;-79
2021/07/01 09:59:24;;;;;;;16.45;6.35;;;;;;;;;;5069449;28;37080;-80
2021/07/01 10:01:50;;;;;;;14.93;6.63;;;;;;;;;;5071889;28;37782;-79
2021/07/01 10:04:17;;;;;;;17.55;6.50;;;;;;;;;;5081393;28;37716;-79
2021/07/01 10:06:43;;;;;;;13.35;5.72;;;;;;;;;;5076631;28;37398;-79
2021/07/01 10:09:28;;;;;;;12.43;5.93;;;;;;;;;;5064681;28;36036;-79
2021/07/01 10:11:54;;;;;;;13.65;5.38;;;;;;;;;;5071248;28;38933;-79
2021/07/01 10:14:23;;;;;;;18.80;6.95;;;;;;;;;;5090147;28;39028;-79
2021/07/01 10:16:49;;;;;;;19.48;8.23;;;;;;;;;;5086758;28;37005;-79
2021/07/01 10:19:21;;;;;;;18.73;7.55;;;;;;;;;;5089265;28;36903;-79
2021/07/01 10:22:01;;;;;;;20.73;8.30;;;;;;;;;;5069338;28;38218;-79
2021/07/01 10:24:30;;;;;;;18.08;7.75;;;;;;;;;;5092384;28;48259;-79
2021/07/01 10:26:58;;;;;;;19.30;8.23;;;;;;;;;;5074329;28;37248;-79
2021/07/01 10:29:35;;;;;;;20.00;7.10;;;;;;;;;;5071312;28;36554;-79
2021/07/01 10:32:06;;;;;;;20.73;7.78;;;;;;;;;;5084760;28;38958;-79
2021/07/01 10:34:46;;;;;;;26.60;8.52;;;;;;;;;;5070296;28;47818;-79
2021/07/01 10:37:14;;;;;;;26.02;8.98;;;;;;;;;;5072364;28;37121;-80
2021/07/01 10:39:40;;;;;;;22.77;8.65;;;;;;;;;;5065598;28;35539;-80
2021/07/01 10:42:07;;;;;;;20.95;8.40;;;;;;;;;;5071572;28;37708;-80
2021/07/01 10:44:34;;;;;;;22.17;9.43;;;;;;;;;;5090089;28;38066;-79
2021/07/01 10:47:00;;;;;;;22.73;9.60;;;;;;;;;;5090055;28;38238;-79
2021/07/01 10:49:32;;;;;;;22.40;9.38;;;;;;;;;;5068198;28;35568;-79
2021/07/01 10:52:00;;;;;;;25.50;8.95;;;;;;;;;;5069207;28;37704;-79
2021/07/01 10:54:26;;;;;;;22.55;7.97;;;;;;;;;;5089823;28;38221;-79
2021/07/01 10:56:54;;;;;;;24.15;9.80;;;;;;;;;;5086252;28;39079;-80
2021/07/01 10:59:21;;;;;;;24.92;9.30;;;;;;;;;;5070679;28;35966;-80
2021/07/01 11:01:52;;;;;;;28.75;9.70;;;;;;;;;;5089336;28;40279;-79
2021/07/01 11:04:19;;;;;;;26.73;10.10;;;;;;;;;;5067679;28;38147;-79
2021/07/01 11:06:56;;;;;;;25.65;8.55;;;;;;;;;;5083394;28;38628;-79
2021/07/01 11:09:22;;;;;;;27.55;8.25;;;;;;;;;;5087035;28;37713;-79
2021/07/01 11:12:00;;;;;;;30.85;8.50;;;;;;;;;;5073765;28;37577;-79
2021/07/01 11:14:37;;;;;;;25.90;9.25;;;;;;;;;;5072250;28;37345;-79
2021/07/01 11:17:04;;;;;;;18.88;7.53;;;;;;;;;;5080266;28;39253;-78
2021/07/01 11:19:39;;;;;;;20.88;7.47;;;;;;;;;;5061236;28;36490;-79
2021/07/01 11:22:05;;;;;;;22.75;8.13;;;;;;;;;;5072616;28;37818;-78
2021/07/01 11:24:32;;;;;;;20.70;8.18;;;;;;;;;;5088396;28;39764;-78
2021/07/01 11:27:00;;;;;;;19.70;7.60;;;;;;;;;;5080696;28;39405;-78
2021/07/01 11:29:37;;;;;;;21.88;7.40;;;;;;;;;;5081333;28;47769;-78
2021/07/01 11:32:15;;;;;;;26.25;7.93;;;;;;;;;;5060989;28;37792;-77
2021/07/01 11:34:42;;;;;;;24.40;7.55;;;;;;;;;;5088118;28;38471;-77
2021/07/01 11:37:09;;;;;;;27.38;7.68;;;;;;;;;;5057712;28;37151;-78
2021/07/01 11:39:36;;;;;;;25.77;8.57;;;;;;;;;;5073528;28;36795;-78
2021/07/01 11:42:04;;;;;;;19.73;7.25;;;;;;;;;;5082039;28;40015;-77
2021/07/01 11:44:32;;;;;;;22.58;7.93;;;;;;;;;;5059205;28;37885;-78
2021/07/01 11:46:59;;;;;;;28.05;8.88;;;;;;;;;;5060321;28;37045;-77
2021/07/01 11:49:26;;;;;;;23.90;8.30;;;;;;;;;;5087705;28;37880;-77
2021/07/01 11:51:52;;;;;;;22.98;7.97;;;;;;;;;;5078097;28;38972;-77
2021/07/01 11:54:19;;;;;;;22.65;7.78;;;;;;;;;;5071757;28;37786;-78
2021/07/01 11:57:01;;;;;;;18.15;6.45;;;;;;;;;;5065389;28;37561;-76
2021/07/01 11:59:29;;;;;;;25.90;8.25;;;;;;;;;;5060128;28;47300;-77
2021/07/01 12:01:59;;;;;;;18.95;6.97;;;;;;;;;;5081298;28;40361;-77
2021/07/01 12:04:28;;;;;;;25.17;8.38;;;;;;;;;;5068396;28;37378;-78
2021/07/01 12:06:55;;;;;;;20.05;7.68;;;;;;;;;;5092507;28;37709;-77
2021/07/01 12:09:22;;;;;;;15.77;6.45;;;;;;;;;;5061795;28;36876;-78
2021/07/01 12:12:04;;;;;;;22.23;6.50;;;;;;;;;;5067897;28;38926;-77
2021/07/01 12:14:34;;;;;;;17.65;5.95;;;;;;;;;;5082221;28;48853;-77
2021/07/01 12:17:00;;;;;;;17.98;6.47;;;;;;;;;;5083888;28;38537;-77
2021/07/01 12:19:45;;;;;;;18.23;6.82;;;;;;;;;;5069303;28;37249;-77
2021/07/01 12:22:30;;;;;;;22.83;7.15;;;;;;;;;;5091193;28;39834;-77
2021/07/01 12:24:57;;;;;;;20.42;6.95;;;;;;;;;;5091682;28;38834;-77
2021/07/01 12:27:30;;;;;;;18.92;6.40;;;;;;;;;;5091016;28;38604;-78
2021/07/01 12:29:56;;;;;;;18.30;6.35;;;;;;;;;;5069267;28;35484;-78
2021/07/01 12:32:26;;;;;;;18.45;6.25;;;;;;;;;;5088208;28;38308;-78
2021/07/01 12:34:52;;;;;;;17.88;6.68;;;;;;;;;;5070576;28;39186;-78
2021/07/01 12:37:20;;;;;;;20.52;6.63;;;;;;;;;;5055624;28;40056;-78
2021/07/01 12:39:49;;;;;;;20.35;5.75;;;;;;;;;;5067783;28;38416;-77
2021/07/01 12:42:16;;;;;;;18.17;6.95;;;;;;;;;;5084835;28;38658;-78
2021/07/01 12:44:43;;;;;;;23.42;7.85;;;;;;;;;;5085414;28;38811;-77
2021/07/01 12:47:11;;;;;;;13.50;6.20;;;;;;;;;;5060595;28;39624;-77
2021/07/01 12:49:39;;;;;;;20.88;6.68;;;;;;;;;;5071477;28;37995;-78
2021/07/01 12:52:07;;;;;;;20.83;7.00;;;;;;;;;;5081604;28;40969;-77
2021/07/01 12:54:33;;;;;;;15.82;6.38;;;;;;;;;;5077336;28;39994;-77
2021/07/01 12:57:00;;;;;;;14.00;5.80;;;;;;;;;;5081470;28;38031;-77
2021/07/01 12:59:27;;;;;;;20.23;6.30;;;;;;;;;;5089856;28;38061;-77
2021/07/01 13:01:56;;;;;;;19.30;6.57;;;;;;;;;;5072077;28;38616;-78
2021/07/01 13:04:23;;;;;;;21.27;7.65;;;;;;;;;;5053531;28;39974;-78
2021/07/01 13:06:49;;;;;;;21.30;6.82;;;;;;;;;;5066173;28;36904;-78
2021/07/01 13:09:32;;;;;;;21.33;6.50;;;;;;;;;;5054906;28;38380;-78
2021/07/01 13:11:58;;;;;;;;;;;;;;;;;;5086039;28;39590;-78
2021/07/01 13:14:25;;;;;;;21.95;6.88;;;;;;;;;;5088416;28;40800;-78
2021/07/01 13:17:05;;;;;;;19.88;7.13;;;;;;;;;;5073343;28;38978;-78
2021/07/01 13:19:32;;;;;;;16.88;6.65;;;;;;;;;;5090289;28;49003;-78
2021/07/01 13:21:59;;;;;;;19.45;6.50;;;;;;;;;;5062369;28;40927;-78
2021/07/01 13:24:26;;;;;;;24.35;6.82;;;;;;;;;;5066334;28;39220;-78
2021/07/01 13:26:54;;;;;;;20.70;6.50;;;;;;;;;;5060485;28;37592;-78
2021/07/01 13:29:35;;;;;;;19.80;7.35;;;;;;;;;;5062305;28;37602;-78
2021/07/01 13:32:03;;;;;;;18.27;6.70;;;;;;;;;;5088213;28;39094;-78
2021/07/01 13:34:29;;;;;;;17.77;6.10;;;;;;;;;;5066447;28;47322;-78
2021/07/01 13:36:56;;;;;;;17.13;5.90;;;;;;;;;;5058969;28;38750;-77
2021/07/01 13:39:29;;;;;;;14.23;6.63;;;;;;;;;;5057845;28;37983;-78
2021/07/01 13:41:55;;;;;;;17.45;5.63;;;;;;;;;;5083301;28;39080;-78
2021/07/01 13:44:22;;;;;;;15.23;5.90;;;;;;;;;;5077864;28;39439;-77
2021/07/01 13:46:48;;;;;;;21.02;7.57;;;;;;;;;;5067107;28;39264;-78
2021/07/01 13:49:16;;;;;;;14.73;6.22;;;;;;;;;;5064731;28;37271;-78
2021/07/01 13:51:43;;;;;;;20.73;6.00;;;;;;;;;;5076472;28;36527;-78
2021/07/01 13:54:13;;;;;;;18.48;7.55;;;;;;;;;;5090421;28;39325;-78
2021/07/01 13:56:40;;;;;;;13.57;5.85;;;;;;;;;;5068879;28;37128;-78
2021/07/01 13:59:08;;;;;;;12.07;4.97;;;;;;;;;;5087067;28;37593;-78
2021/07/01 14:01:34;;;;;;;16.58;5.18;;;;;;;;;;5065211;28;37856;-78
2021/07/01 14:04:00;;;;;;;12.98;5.25;;;;;;;;;;5070809;28;37362;-78
2021/07/01 14:06:27;;;;;;;11.13;5.38;;;;;;;;;;5087585;28;47604;-78
2021/07/01 14:08:53;;;;;;;10.93;5.10;;;;;;;;;;5082698;28;36725;-78
2021/07/01 14:11:30;;;;;;;10.77;5.03;;;;;;;;;;5063857;28;39082;-80
2021/07/01 14:13:58;;;;;;;12.18;5.05;;;;;;;;;;5059472;28;39269;-78
2021/07/01 14:16:28;;;;;;;15.32;4.80;;;;;;;;;;5086707;27;38358;-77
2021/07/01 14:18:56;;;;;;;9.57;4.10;;;;;;;;;;5066557;28;35520;-77
2021/07/01 14:21:41;;;;;;;14.32;5.32;;;;;;;;;;5093238;27;39034;-77
2021/07/01 14:24:12;;;;;;;8.40;4.63;;;;;;;;;;5087256;28;38965;-78
2021/07/01 14:26:45;;;;;;;10.30;4.43;;;;;;;;;;5088870;28;39321;-78
2021/07/01 14:29:11;;;;;;;11.48;4.88;;;;;;;;;;5053644;28;35780;-78
2021/07/01 14:31:38;;;;;;;12.50;4.47;;;;;;;;;;5077012;28;38937;-78
2021/07/01 14:34:05;;;;;;;9.15;4.00;;;;;;;;;;5059941;28;38974;-78
2021/07/01 14:36:32;;;;;;;13.40;4.68;;;;;;;;;;5087148;28;37772;-78